Wetter

Nordholz:

METAR:

2019/09/21 20:20 ETMN 212020Z 11004KT 9999 FEW370 14/11 Q1017 BLU+

TAF:

2019/09/20 14:23 TAF AMD ETMN 201419Z 2014/2020 26008KT 9999 NSW SCT025 BKN040 TEMPO 2014/2017 28010KT 8000 -DZ SCT015 BKN020 CANCEL 1530

Wind EDXN:

21.09. 20:20z 090/07kt
21.09. 20:30z 080/07kt
21.09. 20:40z 080/06kt
21.09. 20:50z 080/06kt
21.09. 21:00z 080/07kt
21.09. 21:10z 080/08kt
21.09. 21:20z 080/07kt
21.09. 21:30z 090/07kt
21.09. 21:40z 090/07kt
21.09. 21:50z 080/08kt

Bremen:

METAR:

2019/09/21 20:20 EDDW 212020Z 10006KT CAVOK 15/08 Q1016 NOSIG

TAF:

2019/09/21 18:27 TAF EDDW 211700Z 2118/2218 12007KT CAVOK

Hamburg:

METAR:

2019/09/21 20:20 EDDH 212020Z 07005KT CAVOK 13/11 Q1017 NOSIG

TAF:

2019/09/21 18:27 TAF EDDH 211700Z 2118/2224 11004KT CAVOK BECMG 2206/2208 12009KT

Hannover:

METAR:

2019/09/21 20:20 EDDV 212020Z 09005KT CAVOK 14/08 Q1017 NOSIG

TAF:

2019/09/21 18:27 TAF EDDV 211700Z 2118/2218 11006KT CAVOK

Wikipedia Artikel: METARTAF

Daten von Aviation Weather Center der NOAA, es kann keine Garantie für Aktualität und Richtigkeit der Daten übernommen werden.

Die Nutzung dieser Daten zur Flugplanung ist nicht zulässig!

Inoffizielle ATIS 🙂